createdAt,value
2023-03-17T00:01:25.060Z,100312.16
2023-03-17T00:03:53.117Z,100305.22
2023-03-17T00:06:28.476Z,100312.81
2023-03-17T00:08:57.383Z,100319.94
2023-03-17T00:11:27.416Z,100326.84
2023-03-17T00:13:56.642Z,100334.81
2023-03-17T00:16:28.099Z,100328.56
2023-03-17T00:18:56.725Z,100321.13
2023-03-17T00:21:29.144Z,100326.72
2023-03-17T00:23:57.767Z,100325.69
2023-03-17T00:26:26.462Z,100321.97
2023-03-17T00:28:56.268Z,100320.59
2023-03-17T00:31:27.253Z,100323.66
2023-03-17T00:33:56.019Z,100320.59
2023-03-17T00:36:28.091Z,100319.25
2023-03-17T00:38:56.372Z,100330.75
2023-03-17T00:41:27.131Z,100323.66
2023-03-17T00:43:57.214Z,100323.31
2023-03-17T00:46:28.850Z,100315.88
2023-03-17T00:48:58.399Z,100316.22
2023-03-17T00:51:26.283Z,100311.50
2023-03-17T00:53:56.563Z,100315.22
2023-03-17T00:56:24.680Z,100306.59
2023-03-17T00:58:52.809Z,100291.53
2023-03-17T01:01:22.105Z,100294.91
2023-03-17T01:03:49.958Z,100291.00
2023-03-17T01:06:18.134Z,100297.78
2023-03-17T01:08:46.538Z,100295.59
2023-03-17T01:11:18.678Z,100299.63
2023-03-17T01:13:48.677Z,100290.53
2023-03-17T01:16:17.047Z,100286.94
2023-03-17T01:18:46.550Z,100271.22
2023-03-17T01:21:15.355Z,100268.88
2023-03-17T01:23:43.615Z,100267.88
2023-03-17T01:26:11.752Z,100276.47
2023-03-17T01:28:39.776Z,100282.41
2023-03-17T01:31:07.700Z,100282.22
2023-03-17T01:33:35.607Z,100290.34
2023-03-17T01:36:05.316Z,100290.88
2023-03-17T01:38:33.286Z,100301.34
2023-03-17T01:41:01.521Z,100315.34
2023-03-17T01:43:31.051Z,100311.13
2023-03-17T01:46:21.770Z,100314.53
2023-03-17T01:48:57.661Z,100305.91
2023-03-17T01:51:32.385Z,100305.06
2023-03-17T01:54:02.520Z,100311.47
2023-03-17T01:56:31.491Z,100297.25
2023-03-17T01:59:03.864Z,100281.72
2023-03-17T02:01:38.631Z,100287.97
2023-03-17T02:04:07.352Z,100279.69
2023-03-17T02:06:42.164Z,100281.22
2023-03-17T02:09:15.768Z,100269.91
2023-03-17T02:11:45.418Z,100267.00
2023-03-17T02:14:13.540Z,100266.16
2023-03-17T02:16:42.001Z,100271.94
2023-03-17T02:19:09.947Z,100280.22
2023-03-17T02:21:42.728Z,100283.06
2023-03-17T02:24:20.383Z,100272.75
2023-03-17T02:26:50.626Z,100269.22
2023-03-17T02:29:20.174Z,100263.47
2023-03-17T02:31:48.090Z,100265.31
2023-03-17T02:34:16.928Z,100267.19
2023-03-17T02:36:46.600Z,100276.13
2023-03-17T02:39:16.420Z,100274.63
2023-03-17T02:41:44.314Z,100275.97
2023-03-17T02:44:12.722Z,100291.69
2023-03-17T02:46:40.604Z,100294.91
2023-03-17T02:49:09.040Z,100291.53
2023-03-17T02:51:37.116Z,100299.31
2023-03-17T02:54:06.373Z,100292.53
2023-03-17T02:56:34.418Z,100290.34
2023-03-17T02:59:02.326Z,100289.13
2023-03-17T03:01:30.905Z,100283.22
2023-03-17T03:03:59.157Z,100283.38
2023-03-17T03:06:27.324Z,100275.28
2023-03-17T03:08:55.279Z,100260.41
2023-03-17T03:11:24.481Z,100257.69
2023-03-17T03:13:52.464Z,100250.59
2023-03-17T03:16:20.938Z,100228.97
2023-03-17T03:18:48.838Z,100225.94
2023-03-17T03:21:16.659Z,100222.56
2023-03-17T03:23:44.526Z,100231.34
2023-03-17T03:26:12.916Z,100227.97
2023-03-17T03:28:42.178Z,100224.41
2023-03-17T03:31:10.330Z,100211.75
2023-03-17T03:33:38.459Z,100213.75
2023-03-17T03:36:07.737Z,100215.13
2023-03-17T03:38:35.739Z,100214.44
2023-03-17T03:41:03.790Z,100213.75
2023-03-17T03:43:31.576Z,100211.25
2023-03-17T03:46:00.952Z,100215.47
2023-03-17T03:48:29.008Z,100222.06
2023-03-17T03:50:58.017Z,100213.94
2023-03-17T03:53:26.322Z,100198.38
2023-03-17T03:55:54.498Z,100214.09
2023-03-17T03:58:22.742Z,100218.19
2023-03-17T04:00:51.167Z,100213.78
2023-03-17T04:03:20.644Z,100202.44
2023-03-17T04:05:48.424Z,100205.00
2023-03-17T04:08:16.456Z,100202.13
2023-03-17T04:10:44.570Z,100201.09
2023-03-17T04:13:12.881Z,100188.44
2023-03-17T04:15:40.864Z,100187.41
2023-03-17T04:18:09.727Z,100184.19
2023-03-17T04:20:39.485Z,100199.25
2023-03-17T04:23:07.903Z,100190.25
2023-03-17T04:25:36.654Z,100201.25
2023-03-17T04:28:04.942Z,100203.78
2023-03-17T04:30:33.323Z,100204.66
2023-03-17T04:33:01.298Z,100205.81
2023-03-17T04:35:29.239Z,100193.28
2023-03-17T04:37:58.481Z,100205.66
2023-03-17T04:40:27.625Z,100200.56
2023-03-17T04:42:55.465Z,100196.50
2023-03-17T04:45:23.293Z,100189.94
2023-03-17T04:47:51.160Z,100191.44
2023-03-17T04:50:19.093Z,100193.44
2023-03-17T04:52:46.935Z,100196.84
2023-03-17T04:55:16.527Z,100192.13
2023-03-17T04:57:44.750Z,100192.13
2023-03-17T05:00:15.389Z,100185.69
2023-03-17T05:02:43.317Z,100174.53
2023-03-17T05:05:12.243Z,100175.91
2023-03-17T05:07:40.223Z,100200.59
2023-03-17T05:10:09.386Z,100201.56
2023-03-17T05:12:38.672Z,100197.53
2023-03-17T05:15:07.787Z,100198.03
2023-03-17T05:17:35.595Z,100191.78
2023-03-17T05:20:04.310Z,100185.72
2023-03-17T05:22:32.482Z,100187.56
2023-03-17T05:25:00.464Z,100192.47
2023-03-17T05:27:28.306Z,100179.47
2023-03-17T05:29:57.724Z,100189.44
2023-03-17T05:32:25.801Z,100189.44
2023-03-17T05:34:53.934Z,100191.94
2023-03-17T05:37:22.635Z,100185.69
2023-03-17T05:39:50.981Z,100190.59
2023-03-17T05:42:18.889Z,100189.06
2023-03-17T05:44:46.787Z,100194.31
2023-03-17T05:47:16.731Z,100185.38
2023-03-17T05:49:44.602Z,100182.97
2023-03-17T05:52:12.467Z,100181.97
2023-03-17T05:54:40.590Z,100188.06
2023-03-17T05:57:08.779Z,100175.06
2023-03-17T05:59:36.994Z,100166.09
2023-03-17T06:02:04.989Z,100176.91
2023-03-17T06:04:34.221Z,100180.63
2023-03-17T06:07:02.084Z,100170.00
2023-03-17T06:09:30.052Z,100170.84
2023-03-17T06:11:58.043Z,100175.25
2023-03-17T06:14:27.158Z,100180.50
2023-03-17T06:16:55.522Z,100182.00
2023-03-17T06:19:23.564Z,100181.34
2023-03-17T06:21:52.920Z,100177.63
2023-03-17T06:24:21.069Z,100166.78
2023-03-17T06:26:49.115Z,100156.94
2023-03-17T06:29:17.053Z,100169.44
2023-03-17T06:31:50.411Z,100147.13
2023-03-17T06:34:18.435Z,100164.81
2023-03-17T06:36:46.561Z,100166.97
2023-03-17T06:39:16.672Z,100165.16
2023-03-17T06:41:44.747Z,100167.19
2023-03-17T06:44:13.091Z,100157.31
2023-03-17T06:46:41.058Z,100159.44
2023-03-17T06:49:09.358Z,100159.59
2023-03-17T06:51:37.350Z,100155.25
2023-03-17T06:54:06.530Z,100148.47
2023-03-17T06:56:35.843Z,100154.09
2023-03-17T06:59:04.994Z,100158.56
2023-03-17T07:01:32.871Z,100168.00
2023-03-17T07:04:01.040Z,100164.22
2023-03-17T07:06:29.586Z,100163.97
2023-03-17T07:08:57.599Z,100158.28
2023-03-17T07:11:26.248Z,100165.19
2023-03-17T07:13:56.311Z,100163.78
2023-03-17T07:16:24.275Z,100164.94
2023-03-17T07:18:52.460Z,100150.59
2023-03-17T07:21:20.475Z,100161.03
2023-03-17T07:23:48.321Z,100155.16
2023-03-17T07:26:16.251Z,100139.75
2023-03-17T07:28:44.639Z,100147.91
2023-03-17T07:31:14.927Z,100153.34
2023-03-17T07:33:43.480Z,100148.06
2023-03-17T07:36:11.686Z,100154.75
2023-03-17T07:38:39.862Z,100154.28
2023-03-17T07:41:10.091Z,100150.31
2023-03-17T07:43:39.073Z,100163.25
2023-03-17T07:46:07.401Z,100157.38
2023-03-17T07:48:40.758Z,100163.44
2023-03-17T07:51:14.023Z,100158.56
2023-03-17T07:53:42.300Z,100155.66
2023-03-17T07:56:10.289Z,100157.47
2023-03-17T07:58:38.182Z,100151.88
2023-03-17T08:01:06.906Z,100152.72
2023-03-17T08:03:38.160Z,100150.47
2023-03-17T08:06:08.702Z,100147.34
2023-03-17T08:08:36.960Z,100141.91
2023-03-17T08:11:06.317Z,100156.97
2023-03-17T08:13:35.002Z,100149.56
2023-03-17T08:16:02.880Z,100150.97
2023-03-17T08:18:31.011Z,100156.19
2023-03-17T08:21:00.217Z,100154.47
2023-03-17T08:23:28.006Z,100150.78
2023-03-17T08:25:58.232Z,100145.91
2023-03-17T08:28:27.116Z,100144.03
2023-03-17T08:30:55.849Z,100138.75
2023-03-17T08:33:23.765Z,100134.69
2023-03-17T08:35:51.702Z,100141.16
2023-03-17T08:38:20.941Z,100127.78
2023-03-17T08:40:50.518Z,100133.94
2023-03-17T08:43:18.723Z,100136.53
2023-03-17T08:45:46.632Z,100133.63
2023-03-17T08:48:15.313Z,100137.88
2023-03-17T08:50:43.477Z,100132.03
2023-03-17T08:53:11.898Z,100123.84
2023-03-17T08:55:41.233Z,100112.22
2023-03-17T08:58:09.497Z,100121.44
2023-03-17T09:00:37.459Z,100116.41
2023-03-17T09:03:05.747Z,100123.59
2023-03-17T09:05:35.662Z,100123.22
2023-03-17T09:08:06.048Z,100112.53
2023-03-17T09:10:34.147Z,100122.38
2023-03-17T09:13:04.567Z,100111.91
2023-03-17T09:15:33.775Z,100113.59
2023-03-17T09:18:03.264Z,100120.09
2023-03-17T09:20:31.503Z,100117.38
2023-03-17T09:23:00.354Z,100123.69
2023-03-17T09:25:30.224Z,100108.97
2023-03-17T09:27:58.726Z,100123.25
2023-03-17T09:30:27.910Z,100128.69
2023-03-17T09:32:55.943Z,100131.88
2023-03-17T09:35:23.801Z,100129.28
2023-03-17T09:37:51.637Z,100134.56
2023-03-17T09:40:22.435Z,100143.00
2023-03-17T09:43:03.065Z,100135.81
2023-03-17T09:45:37.661Z,100139.63
2023-03-17T09:48:33.601Z,100137.06
2023-03-17T09:51:04.834Z,100139.56
2023-03-17T09:53:36.151Z,100135.31
2023-03-17T09:56:09.687Z,100137.59
2023-03-17T09:58:39.408Z,100133.47
2023-03-17T10:01:12.764Z,100125.34
2023-03-17T10:03:41.162Z,100124.63
2023-03-17T10:06:18.775Z,100114.59
2023-03-17T10:08:52.499Z,100119.94
2023-03-17T10:11:29.457Z,100117.63
2023-03-17T10:14:03.325Z,100111.81
2023-03-17T10:16:40.356Z,100108.00
2023-03-17T10:19:19.678Z,100110.25
2023-03-17T10:21:52.579Z,100096.84
2023-03-17T10:24:21.984Z,100090.81
2023-03-17T10:26:51.590Z,100090.50
2023-03-17T10:29:22.791Z,100097.75
2023-03-17T10:31:55.178Z,100094.59
2023-03-17T10:34:27.671Z,100091.53
2023-03-17T10:37:00.683Z,100091.31
2023-03-17T10:39:32.532Z,100087.00
2023-03-17T10:42:08.647Z,100095.25
2023-03-17T10:44:44.824Z,100090.41
2023-03-17T10:47:31.569Z,100080.84
2023-03-17T10:50:02.751Z,100076.41
2023-03-17T10:52:33.292Z,100070.91
2023-03-17T10:55:03.711Z,100062.91
2023-03-17T10:57:31.596Z,100077.25
2023-03-17T11:00:05.081Z,100066.31
2023-03-17T11:02:38.673Z,100068.44
2023-03-17T11:05:19.439Z,100072.41
2023-03-17T11:07:47.762Z,100067.88
2023-03-17T11:10:20.322Z,100057.34
2023-03-17T11:12:51.248Z,100062.50
2023-03-17T11:15:20.324Z,100057.47
2023-03-17T11:17:55.680Z,100060.88
2023-03-17T11:20:45.700Z,100060.44
2023-03-17T11:23:23.992Z,100062.75
2023-03-17T11:26:03.062Z,100063.94
2023-03-17T11:28:36.911Z,100067.88
2023-03-17T11:31:13.069Z,100071.00
2023-03-17T11:33:53.172Z,100064.50
2023-03-17T11:36:37.221Z,100057.56
2023-03-17T11:39:13.623Z,100053.50
2023-03-17T11:41:49.996Z,100051.28
2023-03-17T11:44:41.673Z,100041.47
2023-03-17T11:47:21.014Z,100046.47
2023-03-17T11:50:15.576Z,100038.22
2023-03-17T11:52:56.288Z,100045.66
2023-03-17T11:55:27.026Z,100038.50
2023-03-17T11:57:58.452Z,100036.94
2023-03-17T12:00:33.678Z,100041.22
2023-03-17T12:03:14.605Z,100043.59
2023-03-17T12:05:45.880Z,100032.56
2023-03-17T12:08:21.877Z,100035.38
2023-03-17T12:10:54.174Z,100032.38
2023-03-17T12:13:26.557Z,100034.56
2023-03-17T12:15:58.205Z,100026.25
2023-03-17T12:18:32.633Z,100025.59
2023-03-17T12:21:08.588Z,100028.78
2023-03-17T12:23:42.159Z,100026.84
2023-03-17T12:26:13.863Z,100017.66
2023-03-17T12:28:47.571Z,100036.88
2023-03-17T12:31:20.999Z,100034.84
2023-03-17T12:33:54.933Z,100036.09
2023-03-17T12:36:25.885Z,100028.66
2023-03-17T12:38:57.907Z,100025.81
2023-03-17T12:41:40.865Z,100022.16
2023-03-17T12:44:21.181Z,100017.47
2023-03-17T12:47:41.500Z,100016.47
2023-03-17T12:50:34.338Z,100019.63
2023-03-17T12:53:24.476Z,100025.50
2023-03-17T12:55:55.669Z,100015.31
2023-03-17T12:58:30.894Z,100014.38
2023-03-17T13:01:08.897Z,100012.97
2023-03-17T13:03:46.780Z,100007.94
2023-03-17T13:06:20.829Z,99990.59
2023-03-17T13:08:52.121Z,99997.97
2023-03-17T13:11:29.430Z,99998.84
2023-03-17T13:14:12.257Z,99995.03
2023-03-17T13:16:41.657Z,99990.09
2023-03-17T13:19:20.023Z,99990.22
2023-03-17T13:21:57.368Z,99983.13
2023-03-17T13:24:47.238Z,99984.56
2023-03-17T13:27:36.126Z,99970.53
2023-03-17T13:30:37.699Z,99974.69
2023-03-17T13:33:23.228Z,99979.03
2023-03-17T13:36:10.761Z,99973.53
2023-03-17T13:39:18.419Z,99970.25
2023-03-17T13:41:59.278Z,99967.50
2023-03-17T13:44:38.498Z,99978.72
2023-03-17T13:47:28.927Z,99976.19
2023-03-17T13:50:03.430Z,99974.75
2023-03-17T13:52:34.415Z,99966.00
2023-03-17T13:55:12.158Z,99974.91
2023-03-17T13:57:40.749Z,99958.06
2023-03-17T14:00:23.293Z,99959.00
2023-03-17T14:03:00.014Z,99952.50
2023-03-17T14:05:32.925Z,99942.91
2023-03-17T14:08:03.807Z,99940.50
2023-03-17T14:10:34.051Z,99942.53
2023-03-17T14:13:08.966Z,99943.63
2023-03-17T14:15:47.959Z,99939.59
2023-03-17T14:18:19.183Z,99937.44
2023-03-17T14:20:55.620Z,99939.91
2023-03-17T14:23:24.010Z,99942.78
2023-03-17T14:25:52.611Z,99936.34
2023-03-17T14:28:26.381Z,99937.06
2023-03-17T14:30:56.750Z,99940.56
2023-03-17T14:33:27.217Z,99935.31
2023-03-17T14:35:59.537Z,99932.06
2023-03-17T14:38:30.779Z,99930.88
2023-03-17T14:41:04.352Z,99936.38
2023-03-17T14:43:32.681Z,99926.84
2023-03-17T14:46:02.557Z,99935.22
2023-03-17T14:48:34.798Z,99938.13
2023-03-17T14:51:07.625Z,99927.75
2023-03-17T14:53:37.268Z,99938.47
2023-03-17T14:56:05.732Z,99940.69
2023-03-17T14:58:38.806Z,99945.00
2023-03-17T15:01:08.861Z,99953.47
2023-03-17T15:03:40.288Z,99949.97
2023-03-17T15:06:23.829Z,99957.50
2023-03-17T15:08:52.630Z,99949.63
2023-03-17T15:11:29.538Z,99944.16
2023-03-17T15:14:07.213Z,99940.84
2023-03-17T15:16:37.118Z,99937.84
2023-03-17T15:19:08.851Z,99934.41
2023-03-17T15:21:41.476Z,99943.50
2023-03-17T15:24:32.986Z,99933.47
2023-03-17T15:27:04.212Z,99928.81
2023-03-17T15:29:32.195Z,99927.88
2023-03-17T15:32:11.089Z,99934.56
2023-03-17T15:34:39.053Z,99935.25
2023-03-17T15:37:15.993Z,99941.13
2023-03-17T15:39:44.085Z,99938.75
2023-03-17T15:42:12.016Z,99926.81
2023-03-17T15:44:40.610Z,99934.34
2023-03-17T15:47:13.250Z,99926.44
2023-03-17T15:49:41.417Z,99923.69
2023-03-17T15:52:16.174Z,99928.13
2023-03-17T15:54:44.944Z,99921.53
2023-03-17T15:57:13.772Z,99926.31
2023-03-17T15:59:42.003Z,99926.31
2023-03-17T16:02:25.855Z,99932.38
2023-03-17T16:04:54.180Z,99936.09
2023-03-17T16:07:24.561Z,99931.81
2023-03-17T16:09:52.478Z,99921.78
2023-03-17T16:12:21.150Z,99921.28
2023-03-17T16:14:49.206Z,99908.16
2023-03-17T16:17:21.661Z,99913.53
2023-03-17T16:19:50.233Z,99917.53
2023-03-17T16:22:37.380Z,99922.28
2023-03-17T16:25:12.960Z,99927.31
2023-03-17T16:27:41.116Z,99930.16
2023-03-17T16:30:17.015Z,99924.41
2023-03-17T16:32:45.278Z,99932.19
2023-03-17T16:35:17.936Z,99938.13
2023-03-17T16:37:48.053Z,99940.16
2023-03-17T16:40:23.757Z,99943.03
2023-03-17T16:42:51.822Z,99943.72
2023-03-17T16:45:26.443Z,99950.50
2023-03-17T16:47:55.034Z,99961.91
2023-03-17T16:50:25.601Z,99967.06
2023-03-17T16:52:55.301Z,99969.34
2023-03-17T16:55:25.295Z,99963.84
2023-03-17T16:57:55.968Z,99974.06
2023-03-17T17:00:26.419Z,99971.78
2023-03-17T17:02:55.202Z,99974.53
2023-03-17T17:05:25.377Z,99972.19
2023-03-17T17:07:56.710Z,99963.75
2023-03-17T17:10:27.160Z,99964.31
2023-03-17T17:12:55.639Z,99966.88
2023-03-17T17:15:24.170Z,99977.31
2023-03-17T17:17:56.423Z,99984.66
2023-03-17T17:20:28.892Z,100002.13
2023-03-17T17:22:59.014Z,100017.81
2023-03-17T17:25:28.065Z,100013.63
2023-03-17T17:27:57.039Z,100017.97
2023-03-17T17:30:28.288Z,100007.09
2023-03-17T17:32:58.869Z,99996.22
2023-03-17T17:35:31.245Z,99994.75
2023-03-17T17:38:02.056Z,100002.16
2023-03-17T17:40:31.194Z,99989.66
2023-03-17T17:42:59.504Z,99995.00
2023-03-17T17:45:27.494Z,99990.63
2023-03-17T17:47:55.413Z,99990.06
2023-03-17T17:50:26.481Z,99989.81
2023-03-17T17:52:55.032Z,100002.47
2023-03-17T17:55:24.308Z,100000.47
2023-03-17T17:57:52.697Z,100013.31
2023-03-17T18:00:21.600Z,100020.16
2023-03-17T18:02:49.416Z,99998.88
2023-03-17T18:05:17.876Z,99991.50
2023-03-17T18:07:46.217Z,99981.00
2023-03-17T18:10:18.436Z,99969.72
2023-03-17T18:12:48.157Z,99966.22
2023-03-17T18:15:16.859Z,99965.53
2023-03-17T18:17:45.049Z,99984.75
2023-03-17T18:20:15.008Z,99989.69
2023-03-17T18:22:43.604Z,99999.66
2023-03-17T18:25:14.255Z,99997.22
2023-03-17T18:27:42.714Z,99980.88
2023-03-17T18:30:15.126Z,99990.19
2023-03-17T18:32:43.971Z,99988.97
2023-03-17T18:35:15.784Z,99988.50
2023-03-17T18:37:45.088Z,99971.91
2023-03-17T18:40:17.249Z,99971.53
2023-03-17T18:42:47.026Z,99958.19
2023-03-17T18:45:17.050Z,99964.28
2023-03-17T18:47:44.986Z,99977.25
2023-03-17T18:50:15.886Z,99997.50
2023-03-17T18:52:44.846Z,100011.84
2023-03-17T18:55:14.160Z,100004.81
2023-03-17T18:57:44.489Z,99992.84
2023-03-17T19:00:14.614Z,99999.41
2023-03-17T19:02:44.518Z,99971.94
2023-03-17T19:05:13.161Z,99975.06
2023-03-17T19:07:41.892Z,99973.94
2023-03-17T19:10:12.040Z,99968.91
2023-03-17T19:12:42.573Z,99967.41
2023-03-17T19:15:12.478Z,99972.06
2023-03-17T19:17:41.704Z,99951.31
2023-03-17T19:20:13.340Z,99976.63
2023-03-17T19:22:41.639Z,99984.09
2023-03-17T19:25:11.330Z,99998.19
2023-03-17T19:27:39.935Z,99987.53
2023-03-17T19:30:10.194Z,99998.69
2023-03-17T19:32:38.577Z,99978.50
2023-03-17T19:35:08.295Z,99964.75
2023-03-17T19:37:38.301Z,99985.78
2023-03-17T19:40:08.162Z,100020.28
2023-03-17T19:42:36.280Z,100012.28
2023-03-17T19:45:04.904Z,100010.41
2023-03-17T19:47:33.108Z,100006.75
2023-03-17T19:50:02.210Z,99991.63
2023-03-17T19:52:31.151Z,99989.47
2023-03-17T19:55:00.472Z,100005.34
2023-03-17T19:57:28.820Z,99995.66
2023-03-17T19:59:57.376Z,100007.66
2023-03-17T20:02:25.780Z,100006.47
2023-03-17T20:04:54.267Z,99995.81
2023-03-17T20:07:23.168Z,100000.25
2023-03-17T20:09:51.202Z,99976.50
2023-03-17T20:12:20.649Z,99985.72
2023-03-17T20:14:49.065Z,100004.66
2023-03-17T20:17:17.777Z,100022.56
2023-03-17T20:19:46.165Z,100021.16
2023-03-17T20:22:14.027Z,100000.97
2023-03-17T20:24:42.435Z,100011.22
2023-03-17T20:27:11.356Z,100012.28
2023-03-17T20:29:40.973Z,100002.88
2023-03-17T20:32:09.162Z,100001.56
2023-03-17T20:34:37.704Z,100001.38
2023-03-17T20:37:06.061Z,100009.16
2023-03-17T20:39:34.050Z,99999.84
2023-03-17T20:42:04.229Z,100000.91
2023-03-17T20:44:32.193Z,100013.59
2023-03-17T20:47:01.926Z,100012.13
2023-03-17T20:49:30.518Z,100007.94
2023-03-17T20:51:58.443Z,100012.16
2023-03-17T20:54:26.352Z,99996.00
2023-03-17T20:56:56.555Z,99995.53
2023-03-17T20:59:26.117Z,99995.94
2023-03-17T21:01:54.133Z,99993.91
2023-03-17T21:04:24.623Z,100009.22
2023-03-17T21:06:52.421Z,99998.50
2023-03-17T21:09:20.321Z,100008.38
2023-03-17T21:11:49.253Z,100008.13
2023-03-17T21:14:17.326Z,100008.19
2023-03-17T21:16:47.269Z,100002.13
2023-03-17T21:19:17.186Z,100015.34
2023-03-17T21:21:46.554Z,100006.53
2023-03-17T21:24:26.522Z,100001.94
2023-03-17T21:26:54.709Z,100007.56
2023-03-17T21:29:23.586Z,100018.28
2023-03-17T21:31:51.704Z,100014.50
2023-03-17T21:34:19.912Z,100016.63
2023-03-17T21:36:49.251Z,100019.13
2023-03-17T21:39:17.657Z,100029.22
2023-03-17T21:41:46.840Z,100027.91
2023-03-17T21:44:15.905Z,100021.84
2023-03-17T21:46:44.162Z,100027.94
2023-03-17T21:49:13.254Z,100026.91
2023-03-17T21:51:41.244Z,100027.09
2023-03-17T21:54:10.632Z,100024.97
2023-03-17T21:56:39.663Z,100030.63
2023-03-17T21:59:10.842Z,100026.53
2023-03-17T22:01:39.021Z,100024.81
2023-03-17T22:04:07.421Z,100030.59
2023-03-17T22:06:35.440Z,100026.63
2023-03-17T22:09:04.374Z,100033.06
2023-03-17T22:11:33.584Z,100030.84
2023-03-17T22:14:01.837Z,100038.09
2023-03-17T22:16:30.076Z,100025.03
2023-03-17T22:18:58.010Z,100040.13
2023-03-17T22:21:26.054Z,100033.81
2023-03-17T22:23:53.875Z,100040.91
2023-03-17T22:26:22.955Z,100028.78
2023-03-17T22:28:52.238Z,100033.91
2023-03-17T22:31:22.277Z,100030.69
2023-03-17T22:33:52.590Z,100022.47
2023-03-17T22:36:20.794Z,100036.88
2023-03-17T22:38:49.123Z,100031.81
2023-03-17T22:41:18.719Z,100042.13
2023-03-17T22:43:47.327Z,100039.59
2023-03-17T22:46:17.720Z,100030.13
2023-03-17T22:48:46.723Z,100039.81
2023-03-17T22:51:17.322Z,100037.56
2023-03-17T22:53:46.098Z,100036.34
2023-03-17T22:56:16.382Z,100041.88
2023-03-17T22:58:45.072Z,100036.09
2023-03-17T23:01:16.225Z,100039.47
2023-03-17T23:03:45.999Z,100044.56
2023-03-17T23:06:15.421Z,100043.91
2023-03-17T23:08:45.689Z,100036.47
2023-03-17T23:11:17.172Z,100044.72
2023-03-17T23:13:45.845Z,100046.94
2023-03-17T23:16:14.645Z,100057.94
2023-03-17T23:18:46.095Z,100057.16
2023-03-17T23:21:21.873Z,100057.63
2023-03-17T23:23:49.768Z,100061.50
2023-03-17T23:26:17.974Z,100057.50
2023-03-17T23:28:46.355Z,100054.34
2023-03-17T23:31:15.790Z,100056.88
2023-03-17T23:33:44.115Z,100056.06
2023-03-17T23:36:13.977Z,100065.50
2023-03-17T23:38:43.986Z,100066.53
2023-03-17T23:41:12.719Z,100065.72
2023-03-17T23:43:41.491Z,100065.28
2023-03-17T23:46:09.490Z,100070.31
2023-03-17T23:48:37.999Z,100071.16
2023-03-17T23:51:06.844Z,100070.91
2023-03-17T23:53:34.730Z,100082.25
2023-03-17T23:56:04.859Z,100075.75
2023-03-17T23:58:33.228Z,100080.41
